Etusivu
METAR-TAF:

METAR-TAF

Lentoasemat :

Andrews-Murphy Airport

Andrews, Pohjois-Carolina, Yhdysvallat

Leveyspiiri: 35-11-42N, Pituuspiiri: 083-51-49W, korkeus merenpinnasta: 517 m

Tämänhetkinen sää

Tämä raportti tehtiin 25 minuuttia sitten, kello 17.15 UTC
Tuuli 4 kn lännestä
Lämpötila 9°C
Kosteus 43%
Ilmanpaine 1030 hPa
Näkyvyys: 16.1 km
selkeää

METAR: KRHP 221715Z AUTO 27004KT 10SM CLR 09/M03 A3041 RMK AO2 T00891031

Aika: 12:40 (17:40 UTC)


TAF: puuttuu

Säähavainnot ja -ennusteet yli 4000 lentoasemalta (METAR- ja TAF-raportit).

Käytössä olevat sääasemat on merkitty karttaan keltaisilla ja punaisilla pisteillä.

Aseta hiiri pisteen päälle nähdäksesi sääaseman nimen.

Klikkaa sitten nähdäksesi säähavainnot ja -ennusteet.

Kartan vaihtaminen: klikkaa mustalla rastilla varustettuja vihreitä pisteitä, niin voit zoomata sisään; viivalla varustettua vihreää pistettä, niin voit zoomata ulos tai vihreitä nuolia, niin pääset viereisille kartoille.


METAR-TAF: